createdAt,value
2023-01-29T00:02:07.990Z,0.20
2023-01-29T00:04:34.486Z,0.23
2023-01-29T00:07:01.319Z,0.21
2023-01-29T00:09:28.645Z,0.27
2023-01-29T00:11:55.051Z,0.09
2023-01-29T00:14:21.416Z,0.21
2023-01-29T00:16:47.965Z,0.21
2023-01-29T00:19:14.359Z,0.26
2023-01-29T00:21:40.891Z,0.28
2023-01-29T00:24:07.589Z,0.22
2023-01-29T00:26:33.987Z,0.21
2023-01-29T00:29:01.972Z,0.23
2023-01-29T00:31:29.127Z,0.27
2023-01-29T00:33:55.731Z,0.26
2023-01-29T00:36:22.729Z,0.23
2023-01-29T00:39:10.732Z,0.23
2023-01-29T00:41:56.651Z,0.20
2023-01-29T00:44:41.962Z,0.07
2023-01-29T00:47:28.516Z,0.24
2023-01-29T00:49:55.410Z,0.18
2023-01-29T00:52:25.193Z,0.13
2023-01-29T00:54:57.573Z,0.21
2023-01-29T00:57:25.589Z,0.22
2023-01-29T00:59:52.499Z,0.16
2023-01-29T01:02:37.613Z,0.17
2023-01-29T01:05:06.291Z,0.13
2023-01-29T01:07:32.801Z,0.18
2023-01-29T01:10:18.402Z,0.10
2023-01-29T01:12:45.143Z,0.07
2023-01-29T01:15:11.845Z,0.06
2023-01-29T01:17:38.317Z,0.10
2023-01-29T01:20:05.403Z,0.06
2023-01-29T01:22:32.061Z,-0.14
2023-01-29T01:24:58.672Z,-0.08
2023-01-29T01:27:25.756Z,-0.06
2023-01-29T01:29:52.445Z,-0.05
2023-01-29T01:32:18.881Z,-0.02
2023-01-29T01:34:45.467Z,-0.03
2023-01-29T01:37:12.012Z,-0.07
2023-01-29T01:39:38.447Z,-0.01
2023-01-29T01:42:11.495Z,-0.08
2023-01-29T01:45:04.477Z,-0.13
2023-01-29T01:47:42.258Z,-0.14
2023-01-29T01:50:16.479Z,-0.04
2023-01-29T01:52:48.921Z,-0.14
2023-01-29T01:55:21.344Z,0.01
2023-01-29T01:57:52.896Z,0.03
2023-01-29T02:00:21.540Z,0.02
2023-01-29T02:03:07.342Z,0.05
2023-01-29T02:05:55.043Z,0.04
2023-01-29T02:09:06.159Z,-0.06
2023-01-29T02:11:32.754Z,0.04
2023-01-29T02:13:59.566Z,0.06
2023-01-29T02:16:26.672Z,0.11
2023-01-29T02:18:53.729Z,0.09
2023-01-29T02:21:47.244Z,0.10
2023-01-29T02:24:53.542Z,0.03
2023-01-29T02:27:48.299Z,0.03
2023-01-29T02:30:23.876Z,-0.07
2023-01-29T02:33:22.364Z,-0.15
2023-01-29T02:36:19.612Z,-0.16
2023-01-29T02:38:59.756Z,-0.23
2023-01-29T02:41:30.053Z,-0.27
2023-01-29T02:44:14.256Z,-0.19
2023-01-29T02:46:51.288Z,-0.22
2023-01-29T02:49:48.929Z,-0.22
2023-01-29T02:52:21.743Z,-0.27
2023-01-29T02:54:50.913Z,-0.16
2023-01-29T02:57:25.434Z,-0.24
2023-01-29T02:59:57.372Z,-0.25
2023-01-29T03:02:37.272Z,-0.21
2023-01-29T03:05:12.801Z,-0.18
2023-01-29T03:07:46.601Z,-0.20
2023-01-29T03:10:21.800Z,-0.21
2023-01-29T03:12:59.777Z,-0.25
2023-01-29T03:15:38.744Z,-0.27
2023-01-29T03:18:11.773Z,-0.22
2023-01-29T03:20:49.159Z,-0.19
2023-01-29T03:23:27.074Z,-0.11
2023-01-29T03:26:17.664Z,-0.17
2023-01-29T03:29:05.339Z,-0.16
2023-01-29T03:31:52.321Z,-0.14
2023-01-29T03:34:34.998Z,-0.14
2023-01-29T03:37:13.940Z,-0.14
2023-01-29T03:39:40.754Z,-0.16
2023-01-29T03:42:42.759Z,-0.14
2023-01-29T03:45:25.389Z,-0.09
2023-01-29T03:48:12.283Z,-0.08
2023-01-29T03:50:38.875Z,-0.14
2023-01-29T03:53:25.592Z,-0.11
2023-01-29T03:55:55.482Z,-0.07
2023-01-29T03:58:34.950Z,-0.19
2023-01-29T04:01:12.360Z,-0.09
2023-01-29T04:03:44.096Z,-0.17
2023-01-29T04:06:13.251Z,-0.13
2023-01-29T04:08:58.748Z,-0.18
2023-01-29T04:11:27.447Z,-0.21
2023-01-29T04:13:54.329Z,-0.22
2023-01-29T04:16:27.378Z,-0.14
2023-01-29T04:18:55.574Z,-0.18
2023-01-29T04:21:22.336Z,-0.15
2023-01-29T04:23:48.944Z,-0.25
2023-01-29T04:26:26.044Z,-0.24
2023-01-29T04:29:22.448Z,-0.18
2023-01-29T04:32:07.709Z,-0.28
2023-01-29T04:34:55.286Z,-0.24
2023-01-29T04:37:35.188Z,-0.27
2023-01-29T04:40:14.641Z,-0.24
2023-01-29T04:43:25.833Z,-0.29
2023-01-29T04:46:03.777Z,-0.32
2023-01-29T04:48:35.069Z,-0.29
2023-01-29T04:51:17.720Z,-0.31
2023-01-29T04:54:00.033Z,-0.24
2023-01-29T04:56:42.566Z,-0.30
2023-01-29T04:59:15.840Z,-0.38
2023-01-29T05:01:43.967Z,-0.33
2023-01-29T05:04:14.538Z,-0.35
2023-01-29T05:06:42.259Z,-0.36
2023-01-29T05:09:09.753Z,-0.31
2023-01-29T05:11:37.712Z,-0.25
2023-01-29T05:14:07.162Z,-0.25
2023-01-29T05:16:41.950Z,-0.31
2023-01-29T05:19:13.890Z,-0.43
2023-01-29T05:21:43.763Z,-0.45
2023-01-29T05:24:25.315Z,-0.35
2023-01-29T05:27:12.457Z,-0.36
2023-01-29T05:29:44.818Z,-0.32
2023-01-29T05:32:11.514Z,-0.40
2023-01-29T05:34:37.914Z,-0.53
2023-01-29T05:37:04.506Z,-0.37
2023-01-29T05:39:31.077Z,-0.46
2023-01-29T05:41:57.713Z,-0.44
2023-01-29T05:44:24.107Z,-0.38
2023-01-29T05:46:50.859Z,-0.43
2023-01-29T05:49:20.371Z,-0.39
2023-01-29T05:51:46.734Z,-0.31
2023-01-29T05:54:13.951Z,-0.32
2023-01-29T05:56:40.845Z,-0.39
2023-01-29T05:59:07.649Z,-0.39
2023-01-29T06:01:34.208Z,-0.50
2023-01-29T06:04:00.819Z,-0.44
2023-01-29T06:06:27.345Z,-0.48
2023-01-29T06:08:54.013Z,-0.49
2023-01-29T06:11:20.849Z,-0.47
2023-01-29T06:13:48.044Z,-0.45
2023-01-29T06:16:16.413Z,-0.63
2023-01-29T06:18:43.144Z,-0.60
2023-01-29T06:21:13.005Z,-0.60
2023-01-29T06:23:39.830Z,-0.54
2023-01-29T06:26:10.465Z,-0.72
2023-01-29T06:28:37.027Z,-0.58
2023-01-29T06:31:21.943Z,-0.64
2023-01-29T06:33:52.219Z,-0.57
2023-01-29T06:36:18.775Z,-0.62
2023-01-29T06:38:45.391Z,-0.52
2023-01-29T06:41:14.015Z,-0.59
2023-01-29T06:43:40.527Z,-0.52
2023-01-29T06:46:08.213Z,-0.65
2023-01-29T06:48:36.182Z,-0.59
2023-01-29T06:51:07.892Z,-0.62
2023-01-29T06:53:35.343Z,-0.51
2023-01-29T06:56:01.899Z,-0.54
2023-01-29T06:58:28.496Z,-0.44
2023-01-29T07:00:54.881Z,-0.39
2023-01-29T07:03:21.299Z,-0.59
2023-01-29T07:05:52.548Z,-0.48
2023-01-29T07:08:22.509Z,-0.44
2023-01-29T07:10:50.069Z,-0.46
2023-01-29T07:13:16.915Z,-0.39
2023-01-29T07:15:44.569Z,-0.46
2023-01-29T07:18:13.972Z,-0.47
2023-01-29T07:20:42.134Z,-0.45
2023-01-29T07:23:13.645Z,-0.46
2023-01-29T07:25:40.808Z,-0.41
2023-01-29T07:28:07.576Z,-0.48
2023-01-29T07:30:34.680Z,-0.42
2023-01-29T07:33:07.494Z,-0.42
2023-01-29T07:35:39.157Z,-0.39
2023-01-29T07:38:06.748Z,-0.44
2023-01-29T07:40:34.068Z,-0.53
2023-01-29T07:43:02.681Z,-0.68
2023-01-29T07:45:30.276Z,-0.58
2023-01-29T07:47:57.166Z,-0.68
2023-01-29T07:50:24.755Z,-0.60
2023-01-29T07:52:51.696Z,-0.41
2023-01-29T07:55:18.281Z,-0.44
2023-01-29T07:57:44.729Z,-0.31
2023-01-29T08:00:12.239Z,-0.31
2023-01-29T08:02:38.800Z,-0.34
2023-01-29T08:05:05.644Z,-0.26
2023-01-29T08:07:32.167Z,-0.34
2023-01-29T08:09:58.676Z,-0.26
2023-01-29T08:12:25.048Z,-0.27
2023-01-29T08:14:51.496Z,-0.26
2023-01-29T08:17:18.010Z,-0.11
2023-01-29T08:19:44.632Z,-0.05
2023-01-29T08:22:11.171Z,-0.05
2023-01-29T08:24:53.251Z,-0.01
2023-01-29T08:27:24.363Z,0.06
2023-01-29T08:29:50.762Z,-0.07
2023-01-29T08:32:17.266Z,0.09
2023-01-29T08:34:43.765Z,0.01
2023-01-29T08:37:10.334Z,0.19
2023-01-29T08:39:36.920Z,0.06
2023-01-29T08:42:03.531Z,0.08
2023-01-29T08:44:30.158Z,0.18
2023-01-29T08:46:56.517Z,0.22
2023-01-29T08:49:23.027Z,0.33
2023-01-29T08:51:51.289Z,0.35
2023-01-29T08:54:17.739Z,0.24
2023-01-29T08:56:44.097Z,0.32
2023-01-29T08:59:10.981Z,0.46
2023-01-29T09:01:37.492Z,0.33
2023-01-29T09:04:03.916Z,0.44
2023-01-29T09:06:30.496Z,0.53
2023-01-29T09:08:57.059Z,0.46
2023-01-29T09:11:23.394Z,0.50
2023-01-29T09:13:49.973Z,0.46
2023-01-29T09:16:16.658Z,0.41
2023-01-29T09:18:43.171Z,0.35
2023-01-29T09:21:10.155Z,0.42
2023-01-29T09:23:36.759Z,0.50
2023-01-29T09:26:03.607Z,0.41
2023-01-29T09:28:30.257Z,0.60
2023-01-29T09:30:57.080Z,0.64
2023-01-29T09:33:24.797Z,0.49
2023-01-29T09:35:51.308Z,0.67
2023-01-29T09:38:17.657Z,0.78
2023-01-29T09:40:46.957Z,0.84
2023-01-29T09:43:24.805Z,0.91
2023-01-29T09:46:05.463Z,0.76
2023-01-29T09:48:35.235Z,0.70
2023-01-29T09:51:07.227Z,0.91
2023-01-29T09:53:46.944Z,1.00
2023-01-29T09:56:20.097Z,1.02
2023-01-29T09:58:46.895Z,0.99
2023-01-29T10:01:35.481Z,1.19
2023-01-29T10:04:14.316Z,0.97
2023-01-29T10:07:05.300Z,0.83
2023-01-29T10:09:50.593Z,0.91
2023-01-29T10:12:38.712Z,1.10
2023-01-29T10:15:26.661Z,0.98
2023-01-29T10:18:30.685Z,1.09
2023-01-29T10:21:34.301Z,1.03
2023-01-29T10:24:39.416Z,1.02
2023-01-29T10:27:15.653Z,1.06
2023-01-29T10:29:44.036Z,1.03
2023-01-29T10:32:23.640Z,1.15
2023-01-29T10:35:13.192Z,1.15
2023-01-29T10:37:41.778Z,1.38
2023-01-29T10:40:29.448Z,1.03
2023-01-29T10:43:30.690Z,0.83
2023-01-29T10:46:34.781Z,0.64
2023-01-29T10:49:21.153Z,0.54
2023-01-29T10:52:11.097Z,0.83
2023-01-29T10:55:11.612Z,0.75
2023-01-29T10:57:44.018Z,0.68
2023-01-29T11:00:22.145Z,0.38
2023-01-29T11:02:51.851Z,0.55
2023-01-29T11:05:35.018Z,0.11
2023-01-29T11:08:07.064Z,0.18
2023-01-29T11:10:40.539Z,0.38
2023-01-29T11:13:14.660Z,0.58
2023-01-29T11:15:41.098Z,0.31
2023-01-29T11:18:15.289Z,0.76
2023-01-29T11:20:43.672Z,0.57
2023-01-29T11:23:39.649Z,0.50
2023-01-29T11:26:08.149Z,0.70
2023-01-29T11:28:36.005Z,0.75
2023-01-29T11:31:02.836Z,0.97
2023-01-29T11:33:30.498Z,0.77
2023-01-29T11:35:58.036Z,0.80
2023-01-29T11:38:29.604Z,0.37
2023-01-29T11:41:14.590Z,0.65
2023-01-29T11:43:41.137Z,0.71
2023-01-29T11:46:15.236Z,0.74
2023-01-29T11:48:45.866Z,0.78
2023-01-29T11:51:22.469Z,0.46
2023-01-29T11:54:04.777Z,0.78
2023-01-29T11:56:41.664Z,0.58
2023-01-29T11:59:27.441Z,0.86
2023-01-29T12:01:54.766Z,0.74
2023-01-29T12:04:26.190Z,0.67
2023-01-29T12:06:54.557Z,0.49
2023-01-29T12:09:28.296Z,0.56
2023-01-29T12:11:54.897Z,0.62
2023-01-29T12:14:35.912Z,0.70
2023-01-29T12:17:24.084Z,0.68
2023-01-29T12:19:58.342Z,0.79
2023-01-29T12:22:42.086Z,1.02
2023-01-29T12:25:21.478Z,1.17
2023-01-29T12:28:08.503Z,0.66
2023-01-29T12:30:55.501Z,0.97
2023-01-29T12:33:41.754Z,0.63
2023-01-29T12:36:20.965Z,0.66
2023-01-29T12:38:47.687Z,0.83
2023-01-29T12:41:25.207Z,0.71
2023-01-29T12:44:02.945Z,0.73
2023-01-29T12:46:34.797Z,0.70
2023-01-29T12:49:07.042Z,0.92
2023-01-29T12:51:49.179Z,1.15
2023-01-29T12:54:21.254Z,1.11
2023-01-29T12:56:58.300Z,0.79
2023-01-29T12:59:43.115Z,0.89
2023-01-29T13:02:09.549Z,0.64
2023-01-29T13:04:47.119Z,0.57
2023-01-29T13:07:23.776Z,0.54
2023-01-29T13:09:56.736Z,0.45
2023-01-29T13:12:24.151Z,0.52
2023-01-29T13:14:58.925Z,0.80
2023-01-29T13:17:33.242Z,0.71
2023-01-29T13:20:09.043Z,0.83
2023-01-29T13:22:39.861Z,0.57
2023-01-29T13:25:12.369Z,0.71
2023-01-29T13:27:39.255Z,0.81
2023-01-29T13:30:06.249Z,0.79
2023-01-29T13:32:35.929Z,0.85
2023-01-29T13:35:14.585Z,0.80
2023-01-29T13:37:51.129Z,0.69
2023-01-29T13:40:25.729Z,0.90
2023-01-29T13:42:54.465Z,0.71
2023-01-29T13:45:25.581Z,0.69
2023-01-29T13:47:53.207Z,1.10
2023-01-29T13:50:41.500Z,0.98
2023-01-29T13:53:19.181Z,0.70
2023-01-29T13:55:45.708Z,0.62
2023-01-29T13:58:43.731Z,0.46
2023-01-29T14:01:10.278Z,0.67
2023-01-29T14:04:02.188Z,0.57
2023-01-29T14:06:44.806Z,0.73
2023-01-29T14:09:39.259Z,0.65
2023-01-29T14:12:25.784Z,0.91
2023-01-29T14:14:55.405Z,0.85
2023-01-29T14:17:23.026Z,0.69
2023-01-29T14:19:51.254Z,0.74
2023-01-29T14:22:23.058Z,0.76
2023-01-29T14:25:00.108Z,0.91
2023-01-29T14:27:26.848Z,0.81
2023-01-29T14:30:00.791Z,0.58
2023-01-29T14:32:28.135Z,0.57
2023-01-29T14:35:01.475Z,0.69
2023-01-29T14:37:41.716Z,0.82
2023-01-29T14:40:10.954Z,0.64
2023-01-29T14:43:07.890Z,0.57
2023-01-29T14:45:36.900Z,0.72
2023-01-29T14:48:09.399Z,0.69
2023-01-29T14:50:35.674Z,0.55
2023-01-29T14:53:11.067Z,0.68
2023-01-29T14:55:41.643Z,0.75
2023-01-29T14:58:15.191Z,0.81
2023-01-29T15:00:45.164Z,0.72
2023-01-29T15:03:22.470Z,0.67
2023-01-29T15:05:50.883Z,0.72
2023-01-29T15:08:38.815Z,0.66
2023-01-29T15:11:44.557Z,0.67
2023-01-29T15:14:24.656Z,0.72
2023-01-29T15:17:09.467Z,0.78
2023-01-29T15:19:42.606Z,0.64
2023-01-29T15:22:17.843Z,0.57
2023-01-29T15:24:46.680Z,0.58
2023-01-29T15:27:18.931Z,0.60
2023-01-29T15:29:57.880Z,0.45
2023-01-29T15:32:30.700Z,0.54
2023-01-29T15:34:58.445Z,0.55
2023-01-29T15:37:27.390Z,0.57
2023-01-29T15:39:54.229Z,0.53
2023-01-29T15:42:25.623Z,0.60
2023-01-29T15:44:56.407Z,0.55
2023-01-29T15:47:32.014Z,0.56
2023-01-29T15:50:00.090Z,0.50
2023-01-29T15:52:35.167Z,0.55
2023-01-29T15:55:06.104Z,0.55
2023-01-29T15:57:37.358Z,0.50
2023-01-29T16:00:05.827Z,0.43
2023-01-29T16:02:35.965Z,0.57
2023-01-29T16:05:03.693Z,0.44
2023-01-29T16:07:30.772Z,0.43
2023-01-29T16:09:58.803Z,0.48
2023-01-29T16:12:25.895Z,0.54
2023-01-29T16:14:52.692Z,0.38
2023-01-29T16:17:27.142Z,0.43
2023-01-29T16:20:01.871Z,0.43
2023-01-29T16:22:34.705Z,0.39
2023-01-29T16:25:07.458Z,0.44
2023-01-29T16:27:35.011Z,0.37
2023-01-29T16:30:02.297Z,0.42
2023-01-29T16:32:30.523Z,0.34
2023-01-29T16:35:00.416Z,0.24
2023-01-29T16:37:30.384Z,0.31
2023-01-29T16:39:57.873Z,0.15
2023-01-29T16:42:25.562Z,0.23
2023-01-29T16:44:55.355Z,0.26
2023-01-29T16:47:38.338Z,0.30
2023-01-29T16:50:28.971Z,0.05
2023-01-29T16:52:57.798Z,0.02
2023-01-29T16:55:25.673Z,0.03
2023-01-29T16:57:54.059Z,0.09
2023-01-29T17:00:30.017Z,0.09
2023-01-29T17:03:04.663Z,0.11
2023-01-29T17:05:35.022Z,0.04
2023-01-29T17:08:02.860Z,0.02
2023-01-29T17:10:30.934Z,-0.09
2023-01-29T17:13:09.801Z,-0.01
2023-01-29T17:15:46.936Z,-0.12
2023-01-29T17:18:20.989Z,-0.12
2023-01-29T17:20:47.872Z,-0.21
2023-01-29T17:23:14.950Z,-0.24
2023-01-29T17:25:41.448Z,-0.14
2023-01-29T17:28:08.060Z,-0.20
2023-01-29T17:30:37.583Z,-0.22
2023-01-29T17:33:16.065Z,-0.21
2023-01-29T17:35:44.502Z,-0.16
2023-01-29T17:38:24.244Z,-0.27
2023-01-29T17:41:00.218Z,-0.28
2023-01-29T17:43:27.051Z,-0.30
2023-01-29T17:45:53.613Z,-0.22
2023-01-29T17:48:26.381Z,-0.30
2023-01-29T17:50:57.839Z,-0.27
2023-01-29T17:53:26.571Z,-0.22
2023-01-29T17:55:57.124Z,-0.27
2023-01-29T17:58:25.750Z,-0.37
2023-01-29T18:00:53.204Z,-0.33
2023-01-29T18:03:45.484Z,-0.42
2023-01-29T18:06:25.270Z,-0.35
2023-01-29T18:08:51.795Z,-0.42
2023-01-29T18:11:18.186Z,-0.46
2023-01-29T18:13:44.694Z,-0.45
2023-01-29T18:16:11.108Z,-0.49
2023-01-29T18:18:37.708Z,-0.50
2023-01-29T18:21:05.655Z,-0.46
2023-01-29T18:23:32.039Z,-0.53
2023-01-29T18:25:58.645Z,-0.55
2023-01-29T18:28:25.504Z,-0.48
2023-01-29T18:30:52.395Z,-0.55
2023-01-29T18:33:19.009Z,-0.46
2023-01-29T18:35:49.148Z,-0.61
2023-01-29T18:38:16.545Z,-0.63
2023-01-29T18:40:43.378Z,-0.52
2023-01-29T18:43:10.096Z,-0.51
2023-01-29T18:45:36.702Z,-0.51
2023-01-29T18:48:03.148Z,-0.68
2023-01-29T18:50:29.727Z,-0.73
2023-01-29T18:52:56.905Z,-0.71
2023-01-29T18:55:23.985Z,-0.70
2023-01-29T18:58:25.004Z,-0.85
2023-01-29T19:00:41.345Z,-0.83
2023-01-29T19:03:07.885Z,-0.83
2023-01-29T19:05:34.447Z,-0.92
2023-01-29T19:08:01.989Z,-0.88
2023-01-29T19:10:28.672Z,-0.98
2023-01-29T19:12:55.012Z,-1.05
2023-01-29T19:15:22.806Z,-1.00
2023-01-29T19:17:50.612Z,-1.00
2023-01-29T19:20:17.402Z,-1.01
2023-01-29T19:22:43.830Z,-1.07
2023-01-29T19:25:10.697Z,-1.09
2023-01-29T19:27:37.230Z,-1.18
2023-01-29T19:30:05.770Z,-1.20
2023-01-29T19:32:32.351Z,-1.11
2023-01-29T19:34:58.911Z,-1.08
2023-01-29T19:37:25.788Z,-1.15
2023-01-29T19:39:52.363Z,-1.15
2023-01-29T19:42:20.398Z,-1.12
2023-01-29T19:44:47.028Z,-1.11
2023-01-29T19:47:13.636Z,-1.12
2023-01-29T19:49:40.749Z,-1.13
2023-01-29T19:52:15.048Z,-1.12
2023-01-29T19:54:46.729Z,-1.12
2023-01-29T19:57:13.346Z,-1.09
2023-01-29T19:59:39.965Z,-1.17
2023-01-29T20:02:06.505Z,-1.22
2023-01-29T20:04:33.286Z,-1.22
2023-01-29T20:06:59.828Z,-1.26
2023-01-29T20:09:26.444Z,-1.28
2023-01-29T20:11:52.964Z,-1.21
2023-01-29T20:14:19.476Z,-1.23
2023-01-29T20:16:45.982Z,-1.27
2023-01-29T20:19:13.737Z,-1.29
2023-01-29T20:21:42.127Z,-1.25
2023-01-29T20:24:13.936Z,-1.21
2023-01-29T20:26:40.518Z,-1.24
2023-01-29T20:29:07.076Z,-1.30
2023-01-29T20:31:33.979Z,-1.23
2023-01-29T20:34:00.649Z,-1.27
2023-01-29T20:36:27.135Z,-1.31
2023-01-29T20:38:53.750Z,-1.30
2023-01-29T20:41:21.288Z,-1.27
2023-01-29T20:43:50.209Z,-1.30
2023-01-29T20:46:17.083Z,-1.35
2023-01-29T20:48:43.732Z,-1.37
2023-01-29T20:51:15.883Z,-1.36
2023-01-29T20:53:45.030Z,-1.33
2023-01-29T20:56:12.571Z,-1.36
2023-01-29T20:58:41.041Z,-1.29
2023-01-29T21:01:12.155Z,-1.19
2023-01-29T21:03:40.074Z,-1.33
2023-01-29T21:06:08.527Z,-1.23
2023-01-29T21:08:36.359Z,-1.28
2023-01-29T21:11:04.195Z,-1.30
2023-01-29T21:13:30.875Z,-1.29
2023-01-29T21:15:57.513Z,-1.26
2023-01-29T21:18:26.384Z,-1.22
2023-01-29T21:20:53.678Z,-1.25
2023-01-29T21:23:21.024Z,-1.31
2023-01-29T21:25:48.538Z,-1.22
2023-01-29T21:28:16.067Z,-1.23
2023-01-29T21:30:42.752Z,-1.27
2023-01-29T21:33:09.210Z,-1.20
2023-01-29T21:35:37.597Z,-1.29
2023-01-29T21:38:04.491Z,-1.29
2023-01-29T21:40:31.267Z,-1.27
2023-01-29T21:43:12.882Z,-1.34
2023-01-29T21:45:40.613Z,-1.45
2023-01-29T21:48:08.118Z,-1.40
2023-01-29T21:50:34.686Z,-1.35
2023-01-29T21:53:02.009Z,-1.43
2023-01-29T21:55:28.876Z,-1.52
2023-01-29T21:57:55.263Z,-1.44
2023-01-29T22:00:21.882Z,-1.54
2023-01-29T22:02:50.158Z,-1.57
2023-01-29T22:05:19.696Z,-1.56
2023-01-29T22:07:49.705Z,-1.58
2023-01-29T22:10:17.722Z,-1.58
2023-01-29T22:12:44.842Z,-1.64
2023-01-29T22:15:12.303Z,-1.58
2023-01-29T22:17:41.383Z,-1.62
2023-01-29T22:20:13.304Z,-1.66
2023-01-29T22:22:39.983Z,-1.67
2023-01-29T22:25:06.820Z,-1.62
2023-01-29T22:27:34.215Z,-1.68
2023-01-29T22:30:00.640Z,-1.61
2023-01-29T22:32:27.270Z,-1.68
2023-01-29T22:34:53.861Z,-1.75
2023-01-29T22:37:20.367Z,-1.69
2023-01-29T22:39:47.230Z,-1.78
2023-01-29T22:42:13.737Z,-1.68
2023-01-29T22:44:40.336Z,-1.67
2023-01-29T22:47:06.824Z,-1.71
2023-01-29T22:49:33.324Z,-1.70
2023-01-29T22:52:11.988Z,-1.64
2023-01-29T22:54:40.397Z,-1.59
2023-01-29T22:57:10.608Z,-1.61
2023-01-29T22:59:37.462Z,-1.72
2023-01-29T23:02:04.332Z,-1.76
2023-01-29T23:04:30.867Z,-1.75
2023-01-29T23:06:57.397Z,-1.93
2023-01-29T23:09:24.727Z,-1.87
2023-01-29T23:11:51.389Z,-1.94
2023-01-29T23:14:18.064Z,-1.98
2023-01-29T23:16:44.580Z,-2.01
2023-01-29T23:19:11.998Z,-2.13
2023-01-29T23:21:39.383Z,-2.20
2023-01-29T23:24:07.283Z,-2.27
2023-01-29T23:26:52.433Z,-2.20
2023-01-29T23:29:19.064Z,-2.28
2023-01-29T23:31:45.686Z,-2.35
2023-01-29T23:34:12.175Z,-2.32
2023-01-29T23:36:38.746Z,-2.37
2023-01-29T23:39:06.132Z,-2.43
2023-01-29T23:41:32.689Z,-2.45
2023-01-29T23:43:59.230Z,-2.41
2023-01-29T23:46:25.810Z,-2.41
2023-01-29T23:48:53.281Z,-2.44
2023-01-29T23:51:19.613Z,-2.42
2023-01-29T23:53:46.004Z,-2.42
2023-01-29T23:56:12.581Z,-2.37
2023-01-29T23:58:39.222Z,-2.35
